Time;durP1;ratioP1;P1;durP2;ratioP2;P2;SDS_P1;SDS_P2;PMS_P1;PMS_P2;Temp;Humidity;BMP_temperature;BMP_pressure;BME280_temperature;BME280_humidity;BME280_pressure;Samples;Min_cycle;Max_cycle;Signal;HPM_P1;HPM_P2
2023/02/16 00:00:30;;;;;;;0.30;0.15;;;;;;;8.87;100.00;100046.94;4939055;28;20487;-81
2023/02/16 00:02:56;;;;;;;1.23;0.10;;;;;;;8.88;100.00;100066.25;4946085;28;20057;-81
2023/02/16 00:05:26;;;;;;;0.57;0.10;;;;;;;8.93;100.00;100064.00;4927584;28;20043;-80
2023/02/16 00:07:53;;;;;;;0.22;0.10;;;;;;;8.92;100.00;100060.53;4932174;28;20458;-81
2023/02/16 00:10:19;;;;;;;0.20;0.20;;;;;;;8.97;100.00;100075.94;4939056;28;20711;-81
2023/02/16 00:15:31;;;;;;;1.30;0.30;;;;;;;8.99;100.00;100058.16;4933236;28;20041;-81
2023/02/16 00:17:59;;;;;;;1.05;0.28;;;;;;;9.02;100.00;100060.50;4951483;28;20085;-81
2023/02/16 00:20:25;;;;;;;0.75;0.25;;;;;;;9.01;100.00;100056.22;4940503;28;20122;-81
2023/02/16 00:22:51;;;;;;;0.20;0.20;;;;;;;9.01;100.00;100052.75;4936407;28;20035;-81
2023/02/16 00:25:17;;;;;;;0.30;0.20;;;;;;;9.03;100.00;100048.19;4950235;28;20499;-81
2023/02/16 00:27:43;;;;;;;0.43;0.20;;;;;;;9.03;100.00;100051.63;4967588;28;20031;-81
2023/02/16 00:30:20;;;;;;;1.25;0.47;;;;;;;9.09;100.00;100062.56;4915965;28;20502;-81
2023/02/16 00:32:49;;;;;;;0.80;0.25;;;;;;;9.07;100.00;100068.00;4947614;28;20046;-81
2023/02/16 00:35:18;;;;;;;1.05;0.40;;;;;;;9.08;100.00;100069.66;4934101;28;20069;-81
2023/02/16 00:37:46;;;;;;;1.52;0.50;;;;;;;9.13;100.00;100070.06;4948233;28;20034;-81
2023/02/16 00:40:14;;;;;;;1.75;0.60;;;;;;;9.13;100.00;100072.69;4950606;28;20030;-81
2023/02/16 00:42:41;;;;;;;0.63;0.50;;;;;;;9.15;100.00;100075.19;4959863;28;20077;-81
2023/02/16 00:45:18;;;;;;;1.17;0.60;;;;;;;9.21;100.00;100074.59;4945196;28;20041;-81
2023/02/16 00:47:47;;;;;;;1.83;0.80;;;;;;;9.21;100.00;100074.59;4945043;28;20035;-81
2023/02/16 00:50:17;;;;;;;1.13;0.90;;;;;;;9.24;100.00;100073.47;4951403;28;20117;-81
2023/02/16 00:52:47;;;;;;;1.48;0.77;;;;;;;9.25;100.00;100070.69;4937374;28;20171;-81
2023/02/16 00:55:18;;;;;;;1.17;0.63;;;;;;;9.27;100.00;100071.38;4925428;29;20556;-81
2023/02/16 00:57:49;;;;;;;1.73;0.60;;;;;;;9.29;100.00;100061.53;4932025;28;20507;-82
2023/02/16 01:00:19;;;;;;;1.33;0.77;;;;;;;9.27;100.00;100049.47;4937115;28;20062;-81
2023/02/16 01:02:47;;;;;;;1.55;0.70;;;;;;;9.29;100.00;100048.34;4966940;28;20227;-81
2023/02/16 01:05:14;;;;;;;3.65;0.82;;;;;;;9.30;100.00;100057.09;4951832;28;20037;-81
2023/02/16 01:13:12;;;;;;;1.35;0.40;;;;;;;9.34;100.00;100058.44;4950677;28;20045;-81
2023/02/16 01:15:39;;;;;;;2.13;0.98;;;;;;;9.35;100.00;100061.94;4932232;28;20115;-81
2023/02/16 01:18:05;;;;;;;1.35;0.52;;;;;;;9.38;100.00;100062.44;4951497;28;20027;-81
2023/02/16 01:20:31;;;;;;;0.95;0.50;;;;;;;9.38;100.00;100051.09;4963127;28;20039;-81
2023/02/16 01:22:58;;;;;;;0.65;0.60;;;;;;;9.41;100.00;100048.16;4953737;28;20498;-81
2023/02/16 01:25:24;;;;;;;2.47;0.55;;;;;;;9.39;100.00;100048.31;4952503;28;20069;-81
2023/02/16 01:27:52;;;;;;;2.45;0.52;;;;;;;9.42;100.00;100063.84;4966204;28;20518;-81
2023/02/16 01:30:23;;;;;;;0.73;0.50;;;;;;;9.46;100.00;100069.63;4948943;29;20090;-81
2023/02/16 01:32:52;;;;;;;1.30;0.68;;;;;;;9.46;100.00;100068.81;4952133;28;20082;-81
2023/02/16 01:35:32;;;;;;;2.33;0.60;;;;;;;9.49;100.00;100065.88;4937607;28;20445;-81
2023/02/16 01:37:58;;;;;;;0.80;0.40;;;;;;;9.46;100.00;100063.53;4944776;28;20483;-81
2023/02/16 01:40:33;;;;;;;0.80;0.50;;;;;;;9.52;100.00;100069.03;4951047;28;20054;-81
2023/02/16 01:43:25;;;;;;;1.27;0.60;;;;;;;9.51;100.00;100064.75;4967613;28;20782;-82
2023/02/16 01:46:01;;;;;;;1.70;0.70;;;;;;;9.52;100.00;100069.03;4951211;28;20039;-81
2023/02/16 01:48:29;;;;;;;2.42;0.70;;;;;;;9.50;100.00;100071.00;4948671;28;20541;-81
2023/02/16 01:51:16;;;;;;;1.60;0.68;;;;;;;9.54;100.00;100069.72;4954996;28;20036;-81
2023/02/16 01:53:57;;;;;;;1.38;0.70;;;;;;;9.52;100.00;100066.41;4954726;28;20031;-81
2023/02/16 01:56:38;;;;;;;0.80;0.80;;;;;;;9.55;100.00;100060.88;4954048;28;20053;-81
2023/02/16 01:59:32;;;;;;;0.60;0.60;;;;;;;9.54;100.00;100064.47;4953727;28;20069;-81
2023/02/16 02:02:02;;;;;;;1.77;0.80;;;;;;;9.53;100.00;100048.78;4945128;28;20062;-81
2023/02/16 02:08:03;;;;;;;1.50;1.00;;;;;;;9.54;100.00;100043.34;4946856;28;20043;-81
2023/02/16 02:10:38;;;;;;;1.73;0.75;;;;;;;9.55;100.00;100047.66;4911396;28;20158;-81
2023/02/16 02:13:09;;;;;;;1.48;0.77;;;;;;;9.58;100.00;100048.31;4948902;29;20082;-81
2023/02/16 02:15:36;;;;;;;1.85;1.20;;;;;;;9.57;100.00;100054.59;4935609;28;20053;-81
2023/02/16 02:18:02;;;;;;;1.02;1.00;;;;;;;9.59;100.00;100045.53;4949007;28;20397;-81
2023/02/16 02:24:00;;;;;;;4.47;1.17;;;;;;;9.61;100.00;100054.16;4943407;28;20043;-78
2023/02/16 02:27:14;;;;;;;2.38;1.10;;;;;;;9.63;100.00;100052.22;4892203;28;20798;-81
2023/02/16 02:30:09;;;;;;;1.08;0.95;;;;;;;9.64;100.00;100055.66;4933732;28;20050;-81
2023/02/16 02:32:48;;;;;;;2.10;1.17;;;;;;;9.66;100.00;100054.53;4953773;28;20041;-81
2023/02/16 02:35:31;;;;;;;2.33;1.25;;;;;;;9.65;100.00;100057.34;4929903;28;20090;-81
2023/02/16 02:38:16;;;;;;;1.85;1.40;;;;;;;9.70;100.00;100067.44;4934467;28;20043;-81
2023/02/16 02:41:02;;;;;;;2.60;1.42;;;;;;;9.70;100.00;100064.81;4944286;28;20039;-81
2023/02/16 02:43:54;;;;;;;1.63;1.52;;;;;;;9.72;100.00;100066.31;4936823;28;20207;-81
2023/02/16 02:46:32;;;;;;;2.17;1.50;;;;;;;9.74;100.00;100068.78;4934871;28;20399;-81
2023/02/16 02:48:58;;;;;;;1.67;1.58;;;;;;;9.72;100.00;100070.75;4930669;28;20030;-81
2023/02/16 02:51:32;;;;;;;1.35;1.25;;;;;;;9.72;100.00;100068.94;4931768;28;20027;-81
2023/02/16 03:03:06;;;;;;;2.03;1.48;;;;;;;9.75;100.00;100089.75;4935847;28;20427;-81
2023/02/16 03:05:33;;;;;;;1.45;1.35;;;;;;;9.74;100.00;100101.31;4946925;28;20467;-81
2023/02/16 03:08:16;;;;;;;2.13;1.42;;;;;;;9.78;100.00;100099.19;4936173;28;20027;-81
2023/02/16 03:13:47;;;;;;;2.75;1.50;;;;;;;9.79;100.00;100108.78;4951494;28;20402;-81
2023/02/16 03:16:21;;;;;;;1.73;1.55;;;;;;;9.79;100.00;100104.31;4964211;28;20023;-81
2023/02/16 03:29:55;;;;;;;1.93;1.30;;;;;;;9.84;100.00;100093.34;4940926;28;20043;-81
2023/02/16 03:32:21;;;;;;;2.78;1.20;;;;;;;9.88;100.00;100096.50;4946581;28;20046;-81
2023/02/16 03:34:47;;;;;;;3.85;1.20;;;;;;;9.89;100.00;100095.53;4964353;28;20475;-81
2023/02/16 03:37:13;;;;;;;2.08;1.40;;;;;;;9.91;100.00;100099.69;4960817;28;20368;-81
2023/02/16 03:42:24;;;;;;;1.58;1.13;;;;;;;9.94;100.00;100087.97;4957134;28;20050;-81
2023/02/16 03:44:50;;;;;;;4.05;1.20;;;;;;;9.97;100.00;100087.69;4950769;28;20488;-81
2023/02/16 03:47:17;;;;;;;1.35;1.27;;;;;;;10.00;100.00;100091.84;4971118;28;20035;-81
2023/02/16 03:49:42;;;;;;;1.05;1.02;;;;;;;9.99;100.00;100096.28;4949376;28;20062;-81
2023/02/16 03:52:09;;;;;;;1.63;1.20;;;;;;;10.00;100.00;100100.59;4968350;28;20066;-81
2023/02/16 03:54:34;;;;;;;4.05;1.10;;;;;;;10.02;100.00;100098.63;4947318;28;20051;-81
2023/02/16 03:57:01;;;;;;;7.95;1.30;;;;;;;10.05;100.00;100092.22;4961982;28;20031;-81
2023/02/16 03:59:27;;;;;;;2.13;1.10;;;;;;;10.03;100.00;100094.19;4948786;28;20322;-81
2023/02/16 04:01:53;;;;;;;1.45;1.20;;;;;;;10.01;100.00;100093.50;4916465;28;20039;-81
2023/02/16 04:04:18;;;;;;;1.10;1.00;;;;;;;10.00;100.00;100100.59;4941929;28;20498;-81
2023/02/16 04:06:44;;;;;;;1.98;0.95;;;;;;;10.01;100.00;100099.63;4946649;28;20106;-81
2023/02/16 04:09:10;;;;;;;1.23;0.90;;;;;;;10.03;100.00;100099.47;4949820;28;20042;-81
2023/02/16 04:14:20;;;;;;;1.05;1.00;;;;;;;10.01;100.00;100118.09;4944472;28;20110;-81
2023/02/16 04:16:45;;;;;;;0.95;0.80;;;;;;;10.02;100.00;100124.19;4950640;28;20463;-81
2023/02/16 04:19:11;;;;;;;2.28;0.70;;;;;;;10.02;100.00;100125.03;4942989;28;20436;-81
2023/02/16 04:21:37;;;;;;;1.40;0.90;;;;;;;10.02;100.00;100127.69;4930925;28;20173;-81
2023/02/16 04:24:04;;;;;;;1.02;0.65;;;;;;;10.02;100.00;100135.59;4940115;28;20042;-81
2023/02/16 04:26:31;;;;;;;9.95;1.17;;;;;;;10.02;100.00;100142.69;4936645;28;20038;-81
2023/02/16 04:28:57;;;;;;;2.75;0.70;;;;;;;10.01;100.00;100146.31;4926117;28;20066;-81
2023/02/16 04:31:23;;;;;;;1.13;0.60;;;;;;;10.01;100.00;100154.22;4970630;28;20190;-81
2023/02/16 04:33:49;;;;;;;0.88;0.63;;;;;;;10.00;100.00;100161.31;4951072;28;20484;-80
2023/02/16 04:36:15;;;;;;;2.15;0.50;;;;;;;10.00;100.00;100166.59;4937084;28;20391;-81
2023/02/16 04:38:41;;;;;;;0.85;0.60;;;;;;;10.01;100.00;100165.63;4965402;28;20061;-81
2023/02/16 04:41:07;;;;;;;0.32;0.32;;;;;;;10.01;100.00;100163.00;4935456;28;20470;-81
2023/02/16 04:43:33;;;;;;;0.20;0.20;;;;;;;10.02;100.00;100147.97;4953055;28;20035;-81
2023/02/16 04:45:59;;;;;;;0.38;0.20;;;;;;;10.02;100.00;100158.53;4957071;28;20089;-77
2023/02/16 04:48:25;;;;;;;0.68;0.20;;;;;;;10.02;100.00;100154.09;4957154;28;20660;-77
2023/02/16 04:50:51;;;;;;;0.30;0.30;;;;;;;10.03;100.00;100161.00;4952143;28;20190;-81
2023/02/16 04:53:17;;;;;;;0.75;0.30;;;;;;;10.02;100.00;100161.16;4950013;28;20041;-81
2023/02/16 04:55:47;;;;;;;1.77;0.40;;;;;;;10.03;100.00;100150.44;4940516;28;20491;-81
2023/02/16 04:58:14;;;;;;;0.30;0.30;;;;;;;10.00;100.00;100152.59;4962890;28;20510;-81
2023/02/16 05:00:39;;;;;;;1.27;0.50;;;;;;;9.99;100.00;100159.66;4972968;28;20109;-81
2023/02/16 05:03:05;;;;;;;0.40;0.40;;;;;;;9.96;100.00;100157.31;4952920;28;20166;-81
2023/02/16 05:05:32;;;;;;;0.50;0.50;;;;;;;9.92;100.00;100154.13;4954036;28;20046;-81
2023/02/16 05:07:58;;;;;;;0.50;0.40;;;;;;;9.91;100.00;100156.91;4950282;28;20039;-81
2023/02/16 05:10:23;;;;;;;2.92;1.00;;;;;;;9.90;100.00;100158.75;4951609;28;20024;-80
2023/02/16 05:15:33;;;;;;;1.13;0.80;;;;;;;9.86;100.00;100165.28;4954319;28;20058;-80
2023/02/16 05:17:59;;;;;;;2.75;1.10;;;;;;;9.85;100.00;100165.44;4944813;28;20039;-81
2023/02/16 05:21:28;;;;;;;2.42;1.20;;;;;;;9.85;100.00;100163.63;4971452;28;20061;-77
2023/02/16 05:23:10;;;;;;;2.38;1.15;;;;;;;9.82;100.00;100171.00;4967478;28;20089;-77
2023/02/16 05:25:36;;;;;;;4.57;1.38;;;;;;;9.80;100.00;100172.00;4969642;28;20043;-81
2023/02/16 05:28:02;;;;;;;1.48;0.90;;;;;;;9.79;100.00;100178.22;4936045;28;20801;-80
2023/02/16 05:30:28;;;;;;;2.15;1.20;;;;;;;9.80;100.00;100193.09;4953009;28;20039;-80
2023/02/16 05:32:54;;;;;;;1.33;0.80;;;;;;;9.78;100.00;100192.41;4950717;28;20051;-81
2023/02/16 05:35:19;;;;;;;1.15;0.80;;;;;;;9.77;100.00;100196.03;4946996;28;20043;-81
2023/02/16 05:37:46;;;;;;;2.13;0.68;;;;;;;9.77;100.00;100201.31;4930322;28;20035;-80
2023/02/16 05:40:13;;;;;;;1.05;0.70;;;;;;;9.74;100.00;100198.97;4949015;28;20031;-81
2023/02/16 05:42:38;;;;;;;1.35;0.70;;;;;;;9.74;100.00;100192.84;4938352;28;20125;-81
2023/02/16 05:45:04;;;;;;;0.68;0.47;;;;;;;9.73;100.00;100207.03;4951259;28;20058;-81
2023/02/16 05:47:30;;;;;;;0.98;0.50;;;;;;;9.71;100.00;100206.34;4891774;28;20031;-77
2023/02/16 05:49:56;;;;;;;0.75;0.52;;;;;;;9.68;100.00;100210.91;4964205;28;20047;-77
2023/02/16 05:52:22;;;;;;;1.67;0.68;;;;;;;9.67;100.00;100227.72;4937515;28;20037;-81
2023/02/16 05:54:48;;;;;;;1.00;0.60;;;;;;;9.66;100.00;100235.78;4874106;28;20095;-80
2023/02/16 05:57:14;;;;;;;1.65;0.80;;;;;;;9.65;100.00;100242.88;4969407;28;20038;-81
2023/02/16 05:59:40;;;;;;;0.82;0.60;;;;;;;9.63;100.00;100239.56;4971392;28;20043;-81
2023/02/16 06:02:08;;;;;;;3.25;0.77;;;;;;;9.63;100.00;100249.28;4951549;28;20253;-81
2023/02/16 06:04:34;;;;;;;1.27;0.70;;;;;;;9.61;100.00;100243.31;4936816;28;20395;-81
2023/02/16 06:07:01;;;;;;;4.82;0.80;;;;;;;9.59;100.00;100242.63;4950820;28;20499;-81
2023/02/16 06:09:27;;;;;;;1.15;0.70;;;;;;;9.58;100.00;100254.16;4932348;28;20106;-81
2023/02/16 06:11:52;;;;;;;2.03;0.90;;;;;;;9.57;100.00;100255.13;4949892;28;20034;-82
2023/02/16 06:14:19;;;;;;;2.10;1.30;;;;;;;9.57;100.00;100265.69;4937710;28;20031;-81
2023/02/16 06:16:48;;;;;;;3.47;1.00;;;;;;;9.54;100.00;100264.97;4934722;28;20467;-81
2023/02/16 06:19:15;;;;;;;4.70;1.02;;;;;;;9.54;100.00;100264.13;4931773;28;20031;-81
2023/02/16 06:21:41;;;;;;;3.25;0.77;;;;;;;9.51;100.00;100275.81;4964043;28;20039;-81
2023/02/16 06:24:10;;;;;;;2.03;1.02;;;;;;;9.51;100.00;100273.19;4951791;28;20035;-81
2023/02/16 06:26:36;;;;;;;1.00;0.70;;;;;;;9.50;100.00;100268.88;4938580;28;20039;-81
2023/02/16 06:29:02;;;;;;;3.30;1.20;;;;;;;9.50;100.00;100279.44;4940528;28;20035;-81
2023/02/16 06:31:28;;;;;;;2.45;1.13;;;;;;;9.48;100.00;100283.19;4946697;28;20038;-81
2023/02/16 06:33:55;;;;;;;3.00;2.45;;;;;;;9.47;100.00;100278.88;4935854;28;20062;-81
2023/02/16 06:36:22;;;;;;;1.83;0.80;;;;;;;9.50;100.00;100278.59;4938770;28;20042;-81
2023/02/16 06:38:48;;;;;;;1.48;0.80;;;;;;;9.48;100.00;100277.91;4936173;29;20118;-81
2023/02/16 06:41:29;;;;;;;4.05;0.80;;;;;;;9.46;100.00;100283.31;4965645;28;20081;-82
2023/02/16 06:44:00;;;;;;;3.22;1.65;;;;;;;9.46;100.00;100290.44;4954466;28;20062;-81
2023/02/16 06:46:27;;;;;;;0.88;0.40;;;;;;;9.37;100.00;100295.56;4931377;28;22081;-81
2023/02/16 06:48:53;;;;;;;0.60;0.40;;;;;;;9.35;100.00;100294.03;4967299;28;20031;-80
2023/02/16 06:51:19;;;;;;;0.45;0.45;;;;;;;9.34;100.00;100281.81;4966929;28;20035;-81
2023/02/16 06:53:45;;;;;;;0.40;0.30;;;;;;;9.29;100.00;100288.34;4953569;28;20090;-80
2023/02/16 06:56:11;;;;;;;0.35;0.20;;;;;;;9.26;100.00;100278.09;4909855;28;20762;-83
2023/02/16 06:58:37;;;;;;;0.10;0.10;;;;;;;9.22;100.00;100281.13;4933425;29;20082;-83
2023/02/16 07:01:03;;;;;;;1.08;0.30;;;;;;;9.16;100.00;100283.34;4959390;28;20042;-83
2023/02/16 07:03:29;;;;;;;0.20;0.20;;;;;;;9.14;100.00;100282.66;4953559;28;20035;-83
2023/02/16 07:05:54;;;;;;;0.70;0.20;;;;;;;9.07;100.00;100273.66;4951647;28;20034;-84
2023/02/16 07:08:20;;;;;;;0.20;0.20;;;;;;;9.04;100.00;100281.81;4934303;29;20480;-83
2023/02/16 07:10:46;;;;;;;0.10;0.10;;;;;;;9.03;100.00;100278.34;4945363;28;20562;-83
2023/02/16 07:13:12;;;;;;;0.40;0.15;;;;;;;8.98;100.00;100288.47;4936565;28;20027;-83
2023/02/16 07:15:38;;;;;;;0.20;0.20;;;;;;;8.94;100.00;100297.63;4955406;28;20513;-83
2023/02/16 07:18:04;;;;;;;0.35;0.30;;;;;;;8.91;100.00;100309.28;4929740;28;20122;-81
2023/02/16 07:20:30;;;;;;;0.28;0.20;;;;;;;8.91;100.00;100304.03;4937219;28;20149;-83
2023/02/16 07:22:56;;;;;;;1.48;0.90;;;;;;;8.90;100.00;100299.69;4936944;28;20150;-83
2023/02/16 07:25:24;;;;;;;0.47;0.30;;;;;;;8.91;100.00;100303.19;4952869;28;20035;-83
2023/02/16 07:27:50;;;;;;;0.50;0.50;;;;;;;8.90;100.00;100294.44;4920763;28;20438;-82
2023/02/16 07:30:15;;;;;;;1.38;1.00;;;;;;;8.91;100.00;100298.75;4952085;28;20093;-81
2023/02/16 07:32:42;;;;;;;0.40;0.40;;;;;;;8.95;100.00;100306.38;4949031;28;20483;-83
2023/02/16 07:35:09;;;;;;;0.55;0.40;;;;;;;8.93;100.00;100307.34;4953854;28;20486;-83
2023/02/16 07:37:34;;;;;;;2.58;0.70;;;;;;;8.93;100.00;100314.44;4949251;28;20066;-83
2023/02/16 07:40:01;;;;;;;0.50;0.30;;;;;;;8.90;100.00;100310.25;4919532;28;20427;-83
2023/02/16 07:42:31;;;;;;;0.50;0.20;;;;;;;8.92;100.00;100318.00;4920431;28;20522;-82
2023/02/16 07:44:57;;;;;;;0.68;0.40;;;;;;;8.86;100.00;100340.50;4930692;28;20043;-82
2023/02/16 07:47:23;;;;;;;0.82;0.43;;;;;;;8.85;100.00;100346.75;4920494;28;20042;-82
2023/02/16 07:49:50;;;;;;;0.30;0.30;;;;;;;8.83;100.00;100347.81;4935040;28;20089;-82
2023/02/16 07:52:15;;;;;;;0.47;0.35;;;;;;;8.80;100.00;100355.06;4919301;28;20065;-82
2023/02/16 07:54:41;;;;;;;0.20;0.20;;;;;;;8.79;100.00;100357.84;4968968;28;20083;-82
2023/02/16 07:57:08;;;;;;;0.45;0.30;;;;;;;8.79;100.00;100371.81;4969114;28;20039;-82
2023/02/16 07:59:33;;;;;;;0.30;0.30;;;;;;;8.76;100.00;100366.81;4965867;28;20039;-82
2023/02/16 08:01:59;;;;;;;0.17;0.17;;;;;;;8.72;100.00;100359.31;4938500;28;20161;-82
2023/02/16 08:04:25;;;;;;;0.20;0.20;;;;;;;8.65;100.00;100383.56;4931570;28;20436;-83
2023/02/16 08:06:51;;;;;;;0.20;0.10;;;;;;;8.59;100.00;100389.38;4951883;28;20042;-82
2023/02/16 08:09:17;;;;;;;0.20;0.20;;;;;;;8.54;100.00;100386.25;4940107;28;20027;-82
2023/02/16 08:11:43;;;;;;;1.25;0.20;;;;;;;8.52;100.00;100375.84;4967177;28;20038;-82
2023/02/16 08:14:09;;;;;;;2.35;0.28;;;;;;;8.48;100.00;100376.25;4962193;28;20117;-82
2023/02/16 08:16:36;;;;;;;0.28;0.20;;;;;;;8.47;100.00;100371.97;4952246;28;20530;-82
2023/02/16 08:19:03;;;;;;;0.30;0.20;;;;;;;8.46;100.00;100380.84;4968267;28;21506;-82
2023/02/16 08:21:33;;;;;;;0.50;0.38;;;;;;;8.49;100.00;100389.28;4956279;28;20035;-82
2023/02/16 08:24:01;;;;;;;2.17;0.30;;;;;;;8.50;100.00;100400.69;4952022;28;20038;-82
2023/02/16 08:26:33;;;;;;;0.73;0.40;;;;;;;8.48;100.00;100392.06;4977522;28;20095;-82
2023/02/16 08:29:00;;;;;;;0.70;0.50;;;;;;;8.44;100.00;100404.69;4915056;28;20064;-82
2023/02/16 08:31:28;;;;;;;1.98;0.60;;;;;;;8.45;100.00;100408.97;4947435;28;20558;-82
2023/02/16 08:33:56;;;;;;;2.47;0.50;;;;;;;8.53;100.00;100410.94;4954768;28;20031;-82
2023/02/16 08:36:24;;;;;;;0.85;0.50;;;;;;;8.50;100.00;100430.50;4969211;28;20038;-82
2023/02/16 08:38:50;;;;;;;0.68;0.50;;;;;;;8.42;100.00;100443.47;4950211;28;20035;-82
2023/02/16 08:41:18;;;;;;;0.57;0.52;;;;;;;8.42;100.00;100440.84;4937869;28;20376;-82
2023/02/16 08:43:44;;;;;;;1.20;0.55;;;;;;;8.40;100.00;100451.50;4938768;28;20959;-82
2023/02/16 08:46:10;;;;;;;0.98;0.60;;;;;;;8.41;100.00;100462.84;4971997;28;20035;-82
2023/02/16 08:48:37;;;;;;;1.33;1.02;;;;;;;8.40;100.00;100461.19;4952989;28;20042;-83
2023/02/16 08:51:05;;;;;;;2.70;0.88;;;;;;;8.35;100.00;100479.19;4945698;28;20097;-82
2023/02/16 08:53:34;;;;;;;0.70;0.70;;;;;;;8.31;100.00;100486.53;4954427;28;20035;-83
2023/02/16 08:56:03;;;;;;;1.23;0.90;;;;;;;8.26;100.00;100493.97;4941557;29;20106;-83
2023/02/16 08:58:30;;;;;;;2.45;1.02;;;;;;;8.22;100.00;100498.66;4933051;29;20403;-82
2023/02/16 09:00:56;;;;;;;1.25;0.82;;;;;;;8.21;100.00;100510.16;4949127;29;20054;-83
2023/02/16 09:03:22;;;;;;;2.25;1.73;;;;;;;8.21;100.00;100518.06;4939031;29;20119;-82
2023/02/16 09:05:51;;;;;;;2.03;1.48;;;;;;;8.22;100.00;100514.44;4936960;29;20095;-82
2023/02/16 09:08:18;;;;;;;2.25;1.13;;;;;;;8.18;100.00;100516.53;4920396;29;20047;-83
2023/02/16 09:10:44;;;;;;;2.05;0.70;;;;;;;8.17;100.00;100524.53;4950743;29;20027;-82
2023/02/16 09:13:13;;;;;;;2.05;0.70;;;;;;;8.13;100.00;100507.31;4932338;28;20043;-82
2023/02/16 09:15:40;;;;;;;1.70;0.80;;;;;;;7.99;100.00;100525.09;4951518;29;20122;-83
2023/02/16 09:18:08;;;;;;;1.67;0.85;;;;;;;7.93;100.00;100529.03;4966527;28;20039;-82
2023/02/16 09:20:40;;;;;;;0.98;0.90;;;;;;;7.94;100.00;100519.34;4949356;28;20045;-82
2023/02/16 09:23:07;;;;;;;2.42;0.70;;;;;;;7.92;100.00;100521.28;4935409;29;20388;-82
2023/02/16 09:25:34;;;;;;;1.45;0.55;;;;;;;7.92;100.00;100508.97;4951708;29;20039;-82
2023/02/16 09:28:01;;;;;;;2.22;0.70;;;;;;;7.94;100.00;100499.16;4932955;28;20118;-82
2023/02/16 09:30:27;;;;;;;0.90;0.63;;;;;;;7.99;100.00;100518.97;4952247;28;20035;-82
2023/02/16 09:32:53;;;;;;;1.10;0.57;;;;;;;8.02;100.00;100508.19;4948327;29;20504;-82
2023/02/16 09:35:20;;;;;;;2.72;0.68;;;;;;;8.06;100.00;100506.97;4946197;29;20498;-82
2023/02/16 09:37:48;;;;;;;1.23;0.60;;;;;;;8.14;100.00;100516.88;4951326;28;20053;-82
2023/02/16 09:40:15;;;;;;;0.60;0.60;;;;;;;8.11;100.00;100523.25;4950850;29;20115;-82
2023/02/16 09:43:22;;;;;;;0.75;0.68;;;;;;;8.14;100.00;100516.88;4935120;28;20031;-82
2023/02/16 09:45:52;;;;;;;1.77;0.77;;;;;;;8.10;100.00;100540.00;4908995;29;20383;-82
2023/02/16 09:48:26;;;;;;;2.83;0.70;;;;;;;8.15;100.00;100542.25;4942991;28;20027;-82
2023/02/16 09:50:52;;;;;;;1.30;0.55;;;;;;;8.15;100.00;100534.34;4930908;29;20562;-82
2023/02/16 09:53:40;;;;;;;1.15;0.80;;;;;;;8.17;100.00;100550.88;4949434;29;20039;-82
2023/02/16 09:56:39;;;;;;;1.73;0.68;;;;;;;8.25;100.00;100556.31;4950504;29;20055;-82
2023/02/16 09:59:15;;;;;;;1.15;0.50;;;;;;;8.27;100.00;100554.41;4951541;28;20164;-82
2023/02/16 10:01:55;;;;;;;0.77;0.45;;;;;;;8.32;100.00;100557.50;4965128;28;20118;-82
2023/02/16 10:04:45;;;;;;;1.50;0.90;;;;;;;8.44;100.00;100554.81;4928638;29;20688;-81
2023/02/16 10:07:14;;;;;;;1.25;0.77;;;;;;;8.53;100.00;100555.84;4947458;29;20046;-82
2023/02/16 10:09:46;;;;;;;0.43;0.43;;;;;;;8.66;100.00;100568.88;4915773;28;20035;-82
2023/02/16 10:12:19;;;;;;;1.58;0.90;;;;;;;8.78;100.00;100562.56;4957060;28;20035;-82
2023/02/16 10:14:51;;;;;;;2.97;0.82;;;;;;;8.80;100.00;100565.91;4949628;29;20062;-81
2023/02/16 10:17:22;;;;;;;0.82;0.50;;;;;;;8.95;100.00;100556.81;4930944;29;20043;-82
2023/02/16 10:19:57;;;;;;;2.05;0.45;;;;;;;9.09;100.00;100567.03;4915279;29;20136;-82
2023/02/16 10:22:32;;;;;;;0.38;0.38;;;;;;;9.27;100.00;100579.59;4913330;29;20042;-81
2023/02/16 10:25:24;;;;;;;1.60;0.40;;;;;;;9.41;100.00;100586.31;4945670;29;20043;-81
2023/02/16 10:28:19;;;;;;;2.35;0.45;;;;;;;9.63;100.00;100580.00;4882089;28;20043;-81
2023/02/16 10:31:01;;;;;;;0.50;0.30;;;;;;;9.59;100.00;100585.69;4945256;28;20467;-81
2023/02/16 10:33:42;;;;;;;0.45;0.22;;;;;;;9.49;100.00;100577.72;4953894;28;20035;-81
2023/02/16 10:36:39;;;;;;;0.20;0.20;;;;;;;9.40;100.00;100566.16;4949467;28;20126;-81
2023/02/16 10:39:20;;;;;;;0.20;0.20;;;;;;;9.28;100.00;100568.06;4932603;29;20050;-81
2023/02/16 10:41:54;;;;;;;1.58;0.20;;;;;;;9.23;100.00;100586.94;4951011;28;20043;-81
2023/02/16 10:44:25;;;;;;;0.20;0.20;;;;;;;9.17;100.00;100576.91;4953249;28;20130;-81
2023/02/16 10:47:02;;;;;;;0.10;0.10;;;;;;;9.13;100.00;100586.03;4952034;28;20046;-81
2023/02/16 10:49:30;;;;;;;1.40;0.20;;;;;;;9.06;100.00;100594.47;4947373;28;20421;-81
2023/02/16 10:51:56;;;;;;;0.30;0.20;;;;;;;9.05;100.00;100598.09;4943160;28;20059;-81
2023/02/16 10:54:29;;;;;;;0.25;0.20;;;;;;;9.17;100.00;100598.81;4936210;28;20081;-81
2023/02/16 10:57:06;;;;;;;0.20;0.20;;;;;;;9.31;100.00;100594.19;4936453;28;20061;-81
2023/02/16 10:59:43;;;;;;;0.50;0.20;;;;;;;9.46;100.00;100567.44;4932290;28;20038;-81
2023/02/16 11:02:17;;;;;;;0.47;0.30;;;;;;;9.53;100.00;100576.47;4966907;28;20083;-81
2023/02/16 11:04:47;;;;;;;0.28;0.17;;;;;;;9.59;100.00;100568.03;4947050;28;20041;-80
2023/02/16 11:07:17;;;;;;;0.40;0.20;;;;;;;9.64;100.00;100563.19;4947336;28;20476;-78
2023/02/16 11:09:46;;;;;;;2.30;0.30;;;;;;;9.82;100.00;100554.59;4936640;28;20062;-78
2023/02/16 11:12:27;;;;;;;0.50;0.20;;;;;;;9.83;100.00;100553.63;4949238;28;20046;-81
2023/02/16 11:14:58;;;;;;;0.30;0.20;;;;;;;9.92;100.00;100558.09;4948288;28;20030;-81
2023/02/16 11:17:24;;;;;;;0.40;0.30;;;;;;;9.98;100.00;100555.88;4947682;28;20031;-81
2023/02/16 11:19:59;;;;;;;1.33;0.30;;;;;;;10.09;100.00;100560.19;4932972;28;20056;-81
2023/02/16 11:22:28;;;;;;;0.30;0.30;;;;;;;10.17;100.00;100569.09;4933360;28;20039;-81
2023/02/16 11:24:54;;;;;;;0.98;0.30;;;;;;;10.22;100.00;100571.31;4951846;28;20096;-81
2023/02/16 11:27:22;;;;;;;1.52;0.38;;;;;;;10.22;100.00;100568.69;4931164;28;20183;-81
2023/02/16 11:29:49;;;;;;;0.22;0.22;;;;;;;10.23;100.00;100559.78;4944167;28;20190;-81
2023/02/16 11:32:18;;;;;;;0.38;0.32;;;;;;;10.38;100.00;100559.34;4964490;28;20483;-81
2023/02/16 11:34:46;;;;;;;0.10;0.10;;;;;;;10.44;100.00;100540.31;4950972;28;20503;-82
2023/02/16 11:37:28;;;;;;;0.13;0.10;;;;;;;10.50;100.00;100542.41;4954924;28;20387;-81
2023/02/16 11:40:16;;;;;;;0.77;0.20;;;;;;;10.60;100.00;100545.03;4951336;28;20109;-81
2023/02/16 11:42:52;;;;;;;0.20;0.10;;;;;;;10.63;100.00;100541.25;4933164;28;20038;-81
2023/02/16 11:45:33;;;;;;;0.22;0.22;;;;;;;10.70;100.00;100526.53;4925196;28;20129;-81
2023/02/16 11:48:03;;;;;;;0.30;0.20;;;;;;;10.77;100.00;100524.97;4962722;28;20035;-81
2023/02/16 11:50:33;;;;;;;0.43;0.20;;;;;;;10.86;100.00;100511.84;4946402;28;20483;-81
2023/02/16 11:53:11;;;;;;;2.10;0.30;;;;;;;10.92;100.00;100545.66;4945327;28;20506;-81
2023/02/16 11:55:43;;;;;;;0.60;0.30;;;;;;;10.95;100.00;100566.53;4914488;28;20067;-81
2023/02/16 11:58:22;;;;;;;0.60;0.40;;;;;;;10.96;100.00;100562.88;4940012;28;20063;-81
2023/02/16 12:00:56;;;;;;;0.65;0.52;;;;;;;10.95;100.00;100563.88;4944656;28;20098;-81
2023/02/16 12:04:00;;;;;;;0.63;0.40;;;;;;;10.97;100.00;100582.25;4928841;28;20051;-81
2023/02/16 12:06:46;;;;;;;1.50;0.30;;;;;;;10.83;100.00;100573.78;4955953;28;20039;-81
2023/02/16 12:09:16;;;;;;;0.52;0.20;;;;;;;10.75;100.00;100573.69;4936235;28;20039;-81
2023/02/16 12:12:08;;;;;;;0.30;0.22;;;;;;;10.71;100.00;100567.00;4925496;28;20494;-81
2023/02/16 12:14:50;;;;;;;0.10;0.10;;;;;;;10.64;100.00;100578.13;4927246;29;20518;-81
2023/02/16 12:17:28;;;;;;;0.10;0.10;;;;;;;10.60;100.00;100579.41;4943131;28;20039;-80
2023/02/16 12:19:59;;;;;;;0.77;0.30;;;;;;;10.58;100.00;100585.78;4942689;28;20082;-80
2023/02/16 12:22:39;;;;;;;0.32;0.10;;;;;;;10.53;100.00;100573.00;4940986;28;20042;-80
2023/02/16 12:25:43;;;;;;;0.10;0.10;;;;;;;10.50;100.00;100571.47;4962241;28;20047;-80